Nave Celeste — VRZH4 — position and weather

sailwx.info

Track history (hours):
 
Tides and Currents Weather Stations Pressure Air Temp Water Temp Dewpoint Dewpoint Depression Visibility Wind Speed Wind Dir Waves Ship Positions

Nave Celeste

Last reported at 2016-Aug-03 02:30 UTC. Time now 2016-Aug-31 14:24 UTC.
Position N 30°48' W 118°23'.
Warning: this ship's position is 28 days out of date.

Length 333 m; draft 11.3 m.

Type: Ship. MMSI: 477974000.

Date/timePositionNaut miles runAvg speedWind from/ knotsBaromVisibWave heightAir tempDewpointWater temp
2016-Aug-03 02:30N 30°48' W 118°23'1111.2
2016-Aug-03 01:33N 30°58' W 118°28'1111.1
2016-Aug-03 00:34N 31°08' W 118°32'1110.8
2016-Aug-02 23:33N 31°19' W 118°35'1010.5
2016-Aug-02 22:33N 31°29' W 118°39'1111.1
2016-Aug-02 21:33N 31°39' W 118°43'1010.2
2016-Aug-02 20:33N 31°48' W 118°48'1 1.1
2016-Aug-02 19:33N 31°48' W 118°49'1 1.5
2016-Aug-02 18:33N 31°48' W 118°51'1 1.0
2016-Aug-02 17:33N 31°48' W 118°52'1 1.0
2016-Aug-02 16:33N 31°47' W 118°53'1 1.5
2016-Aug-02 15:33N 31°48' W 118°55'2 1.6
2016-Aug-02 14:33N 31°48' W 118°56'1 1.4
2016-Aug-02 13:33N 31°49' W 118°58'1 1.5
2016-Aug-02 12:33N 31°49' W 118°60'1 1.3
2016-Aug-02 11:33N 31°50' W 119°01'1 1.4
2016-Aug-02 10:33N 31°51' W 119°02'1 1.4
2016-Aug-02 09:33N 31°51' W 119°04'2 1.5
2016-Aug-02 08:33N 31°52' W 119°05'1 1.3
2016-Aug-02 07:33N 31°52' W 119°07'1 1.2
2016-Aug-02 06:33N 31°53' W 119°08'2 1.2
2016-Aug-02 04:33N 31°54' W 119°11'1 1.3
2016-Aug-02 03:33N 31°54' W 119°12'1 1.4
2016-Aug-02 02:33N 31°54' W 119°14'2 1.6
2016-Aug-02 01:33N 31°55' W 119°16'1 1.3
2016-Aug-02 00:33N 31°55' W 119°17'1 1.2
2016-Aug-01 23:33N 31°55' W 119°19'1 1.2
2016-Aug-01 22:33N 31°55' W 119°20'4 4.4
2016-Aug-01 21:33N 31°57' W 119°25'6 5.5
2016-Aug-01 20:33N 31°59' W 119°31'3 2.5
2016-Aug-01 19:33N 31°60' W 119°34'1 1.0
2016-Aug-01 18:33N 31°60' W 119°35'0 0.4
2016-Aug-01 17:33N 31°60' W 119°35'1 0.9
2016-Aug-01 16:33N 31°60' W 119°36'4 4.4
2016-Aug-01 15:33N 31°57' W 119°40'5 4.2
2016-Aug-01 14:18N 31°54' W 119°45'2 0.8
2016-Aug-01 12:26N 31°55' W 119°45'1 0.9
2016-Aug-01 11:27N 31°56' W 119°45'1 1.0
2016-Aug-01 10:33N 31°57' W 119°45'2 0.9
2016-Aug-01 08:33N 31°59' W 119°44'1 1.0
2016-Aug-01 07:29N 31°60' W 119°44'3 1.0
2016-Aug-01 04:33N 32°03' W 119°42'1 1.1
2016-Aug-01 03:33N 32°03' W 119°42'1 0.9
2016-Aug-01 02:33N 32°04' W 119°41'1 0.9
2016-Aug-01 01:33N 32°05' W 119°41'2 1.0
2016-Jul-31 23:32N 32°07' W 119°40'1 0.9
2016-Jul-31 22:26N 32°08' W 119°40'1 0.8
2016-Jul-31 21:33N 32°09' W 119°40'1 0.6
2016-Jul-31 20:33N 32°09' W 119°40'0 0.5
2016-Jul-31 19:33N 32°10' W 119°40'0 0.4
2016-Jul-31 18:30N 32°10' W 119°40'0 0.3
2016-Jul-31 17:33N 32°10' W 119°41'2 1.8
2016-Jul-31 16:20N 32°12' W 119°41'4 5.1
2016-Jul-31 15:33N 32°13' W 119°37'1312.6
2016-Jul-31 14:33N 32°11' W 119°22'1711.9
2016-Jul-31 13:10N 32°16' W 119°03'812.2
2016-Jul-31 12:32N 32°21' W 118°56'1212.1
2016-Jul-31 11:33N 32°28' W 118°45'1212.3
2016-Jul-31 10:33N 32°35' W 118°33'1312.8
2016-Jul-31 09:33N 32°42' W 118°21'1312.5
2016-Jul-31 08:33N 32°49' W 118°08'1212.4
2016-Jul-31 07:33N 33°02' W 118°07'1312.6
2016-Jul-31 06:32N 33°14' W 118°06'1212.1
2016-Jul-31 05:33N 33°26' W 118°09'1211.7
2016-Jul-31 04:33N 33°37' W 118°12'7 6.6
2016-Jul-31 03:33N 33°44' W 118°10'0 0.1
2016-Jul-31 02:33N 33°44' W 118°10'0 0.0
2016-Jul-31 01:24N 33°44' W 118°10'0 0.0
2016-Jul-31 00:33N 33°44' W 118°10'0 0.0
2016-Jul-30 22:33N 33°44' W 118°10'0 0.1
2016-Jul-30 21:33N 33°44' W 118°10'0 0.0
2016-Jul-30 20:33N 33°44' W 118°10'0 0.1
2016-Jul-30 19:33N 33°44' W 118°10'0 0.1
2016-Jul-30 18:33N 33°44' W 118°10'0 0.0
2016-Jul-30 17:30N 33°44' W 118°10'0 0.1
2016-Jul-30 16:33N 33°44' W 118°10'0 0.1
2016-Jul-30 15:33N 33°44' W 118°10'0 0.1
2016-Jul-30 14:30N 33°44' W 118°10'0 0.1
2016-Jul-30 13:33N 33°44' W 118°10'0 0.1
2016-Jul-30 12:30N 33°44' W 118°10'0 0.1
2016-Jul-30 11:30N 33°44' W 118°10'0 0.0
2016-Jul-30 09:30N 33°44' W 118°10'0 0.0
2016-Jul-30 08:33N 33°44' W 118°10'0 0.0
2016-Jul-30 07:33N 33°44' W 118°10'0 0.0
2016-Jul-30 06:30N 33°44' W 118°10'0 0.2
2016-Jul-30 05:27N 33°44' W 118°10'0 0.3
2016-Jul-30 04:33N 33°44' W 118°10'3 3.3
2016-Jul-30 03:34N 33°40' W 118°11'6 6.4
2016-Jul-30 02:33N 33°34' W 118°09'1312.7
2016-Jul-30 01:33N 33°22' W 118°04'1313.0
2016-Jul-30 00:33N 33°10' W 117°60'1111.1
2016-Jul-29 23:33N 32°59' W 118°01'1312.9
2016-Jul-29 22:33N 32°48' W 118°10'1313.1
2016-Jul-29 21:33N 32°40' W 118°22'1313.2
2016-Jul-29 20:34N 32°30' W 118°32'1313.1
2016-Jul-29 19:33N 32°20' W 118°43'1313.2
2016-Jul-29 18:33N 32°11' W 118°54'1313.1
2016-Jul-29 17:33N 32°01' W 119°04'1212.1
2016-Jul-29 16:33N 31°51' W 119°12'3 2.8
2016-Jul-29 15:33N 31°49' W 119°14'2 1.9
2016-Jul-29 14:33N 31°47' W 119°16'1 0.8
2016-Jul-29 13:34N 31°47' W 119°16'0 0.4
2016-Jul-29 12:33N 31°47' W 119°17'0 0.4
2016-Jul-29 11:33N 31°47' W 119°17'2 2.4
2016-Jul-29 10:33N 31°47' W 119°20'2 1.7
2016-Jul-29 09:33N 31°48' W 119°22'1 0.8
2016-Jul-29 08:34N 31°48' W 119°23'1 1.0
2016-Jul-29 07:33N 31°49' W 119°24'1 1.1
2016-Jul-29 06:33N 31°49' W 119°25'1 1.2
2016-Jul-29 05:33N 31°50' W 119°26'1 1.3
2016-Jul-29 04:33N 31°50' W 119°28'2 1.9
2016-Jul-29 03:33N 31°51' W 119°30'1 1.3
2016-Jul-29 02:33N 31°51' W 119°31'1 0.9
2016-Jul-29 01:31N 31°52' W 119°32'1 1.0
2016-Jul-29 00:33N 31°53' W 119°33'2 1.6
2016-Jul-28 23:33N 31°54' W 119°34'2 1.5
2016-Jul-28 22:33N 31°55' W 119°35'1 1.3
2016-Jul-28 21:33N 31°56' W 119°36'1 1.4
2016-Jul-28 20:33N 31°56' W 119°38'1 1.3
2016-Jul-28 19:33N 31°57' W 119°39'1 1.3
2016-Jul-28 18:32N 31°58' W 119°40'1 1.4
2016-Jul-28 17:33N 31°59' W 119°41'2 1.7
2016-Jul-28 16:33N 32°00' W 119°43'1 1.3
2016-Jul-28 15:33N 32°01' W 119°44'3 3.1
2016-Jul-28 14:33N 32°03' W 119°46'6 5.6
2016-Jul-28 13:33N 32°07' W 119°51'4 3.9
2016-Jul-28 12:33N 32°11' W 119°54'1 1.0
2016-Jul-28 11:33N 32°12' W 119°54'1 0.9
2016-Jul-28 10:32N 32°12' W 119°55'1 0.8
2016-Jul-28 09:33N 32°13' W 119°55'1 0.9
2016-Jul-28 08:32N 32°14' W 119°55'1 0.9
2016-Jul-28 07:33N 32°15' W 119°55'1 1.3
2016-Jul-28 06:33N 32°16' W 119°55'2 1.6
2016-Jul-28 05:33N 32°18' W 119°55'1 1.5
2016-Jul-28 04:33N 32°19' W 119°56'1 1.4
2016-Jul-28 03:33N 32°19' W 119°58'2 1.6
2016-Jul-28 02:33N 32°20' W 119°59'1 0.9
2016-Jul-28 01:33N 32°19' W 119°59'6 6.3
2016-Jul-28 00:33N 32°18' W 119°52'1111.4
2016-Jul-27 23:33N 32°14' W 119°40'1312.7
2016-Jul-27 22:33N 32°09' W 119°25'1312.6
2016-Jul-27 21:33N 32°05' W 119°11'1212.2
2016-Jul-27 20:34N 32°01' W 118°58'1211.8
2016-Jul-27 19:33N 31°58' W 118°45'1211.8
2016-Jul-27 18:33N 31°55' W 118°31'1211.9
2016-Jul-27 17:33N 31°54' W 118°17'1212.2
2016-Jul-27 16:33N 31°53' W 118°03'1512.3
2016-Jul-27 15:20N 31°52' W 117°45'1011.0
2016-Jul-27 14:24N 31°58' W 117°36'1011.6
2016-Jul-27 13:33N 32°07' W 117°31'1010.4
2016-Jul-27 12:33N 32°16' W 117°24'1 1.1
2016-Jul-27 11:26N 32°16' W 117°23'0 0.1
2016-Jul-27 10:07N 32°16' W 117°23'0 0.2
2016-Jul-27 09:31N 32°16' W 117°23'0 0.2
2016-Jul-27 08:16N 32°17' W 117°23'0 0.2
2016-Jul-27 07:31N 32°17' W 117°23'0 0.2
2016-Jul-27 06:33N 32°17' W 117°24'0 0.1
2016-Jul-27 05:29N 32°17' W 117°24'0 0.3
2016-Jul-27 04:33N 32°17' W 117°23'1 0.2
2016-Jul-27 01:25N 32°18' W 117°24'0 0.3
2016-Jul-27 00:33N 32°18' W 117°24'0 0.4
2016-Jul-26 23:33N 32°18' W 117°25'0 0.4
2016-Jul-26 22:33N 32°18' W 117°25'0 0.4
2016-Jul-26 21:33N 32°18' W 117°26'0 0.4
2016-Jul-26 20:33N 32°18' W 117°26'0 0.4
2016-Jul-26 19:33N 32°18' W 117°26'0 0.3
2016-Jul-26 18:33N 32°17' W 117°27'0 0.2
2016-Jul-26 17:33N 32°17' W 117°27'0 0.2
2016-Jul-26 16:33N 32°17' W 117°26'0 0.2
2016-Jul-26 15:33N 32°17' W 117°26'0 0.2
2016-Jul-26 14:33N 32°17' W 117°26'0 0.3
2016-Jul-26 13:33N 32°17' W 117°26'0 0.1
2016-Jul-26 12:33N 32°17' W 117°26'0 0.2
2016-Jul-26 11:33N 32°17' W 117°26'0 0.1
2016-Jul-26 10:33N 32°17' W 117°25'0 0.1
2016-Jul-26 09:28N 32°17' W 117°25'0 0.1
2016-Jul-26 08:33N 32°17' W 117°25'0 0.2
2016-Jul-26 07:33N 32°17' W 117°25'0 0.2
2016-Jul-26 06:28N 32°17' W 117°25'0 0.2
2016-Jul-26 05:31N 32°18' W 117°25'0 0.1
2016-Jul-26 04:24N 32°18' W 117°25'0 0.1
2016-Jul-26 03:33N 32°18' W 117°26'0 0.2
2016-Jul-26 02:28N 32°18' W 117°26'0 0.2
2016-Jul-26 01:33N 32°18' W 117°26'0 0.3
2016-Jul-26 00:13N 32°18' W 117°26'0 0.3
2016-Jul-25 23:33N 32°18' W 117°26'0 0.4
2016-Jul-25 22:28N 32°18' W 117°27'0 0.4
2016-Jul-25 21:33N 32°18' W 117°27'0 0.4
2016-Jul-25 20:32N 32°18' W 117°28'0 0.3
2016-Jul-25 19:24N 32°18' W 117°28'0 0.3
2016-Jul-25 18:27N 32°18' W 117°28'0 0.4
2016-Jul-25 17:33N 32°17' W 117°28'1 0.4
2016-Jul-25 14:25N 32°16' W 117°28'1 0.3
2016-Jul-25 11:33N 32°15' W 117°27'1 0.2
2016-Jul-25 07:21N 32°16' W 117°27'0 0.1
2016-Jul-25 04:33N 32°16' W 117°27'0 0.3
2016-Jul-25 03:33N 32°16' W 117°28'0 0.2
2016-Jul-25 02:33N 32°16' W 117°28'0 0.3
2016-Jul-25 01:32N 32°16' W 117°28'0 0.3
2016-Jul-25 00:30N 32°16' W 117°28'0 0.3
2016-Jul-24 23:23N 32°16' W 117°29'2 0.4
2016-Jul-24 19:32N 32°15' W 117°30'5 0.7
2016-Jul-24 13:09N 32°10' W 117°30'1 0.4
2016-Jul-24 11:31N 32°10' W 117°29'0 0.0
2016-Jul-24 09:17N 32°10' W 117°29'0 0.2
2016-Jul-24 07:19N 32°10' W 117°29'0 0.2
2016-Jul-24 06:33N 32°09' W 117°30'0 0.3
2016-Jul-24 05:31N 32°09' W 117°30'0 0.4
2016-Jul-24 04:33N 32°10' W 117°30'0 0.4
2016-Jul-24 03:33N 32°09' W 117°31'  
Track history (hours):
 
Tides and Currents Weather Stations Pressure Air Temp Water Temp Dewpoint Dewpoint Depression Visibility Wind Speed Wind Dir Waves Ship Positions

Nave Celeste

Last reported at 2016-Aug-03 02:30 UTC. Time now 2016-Aug-31 14:24 UTC.
Position N 30°48' W 118°23'.
Warning: this ship's position is 28 days out of date.

Length 333 m; draft 11.3 m.

Type: Ship. MMSI: 477974000.

Date/timePositionNaut miles runAvg speedWind from/ knotsBaromVisibWave heightAir tempDewpointWater temp
2016-Aug-03 02:30N 30°48' W 118°23'1111.2
2016-Aug-03 01:33N 30°58' W 118°28'1111.1
2016-Aug-03 00:34N 31°08' W 118°32'1110.8
2016-Aug-02 23:33N 31°19' W 118°35'1010.5
2016-Aug-02 22:33N 31°29' W 118°39'1111.1
2016-Aug-02 21:33N 31°39' W 118°43'1010.2
2016-Aug-02 20:33N 31°48' W 118°48'1 1.1
2016-Aug-02 19:33N 31°48' W 118°49'1 1.5
2016-Aug-02 18:33N 31°48' W 118°51'1 1.0
2016-Aug-02 17:33N 31°48' W 118°52'1 1.0
2016-Aug-02 16:33N 31°47' W 118°53'1 1.5
2016-Aug-02 15:33N 31°48' W 118°55'2 1.6
2016-Aug-02 14:33N 31°48' W 118°56'1 1.4
2016-Aug-02 13:33N 31°49' W 118°58'1 1.5
2016-Aug-02 12:33N 31°49' W 118°60'1 1.3
2016-Aug-02 11:33N 31°50' W 119°01'1 1.4
2016-Aug-02 10:33N 31°51' W 119°02'1 1.4
2016-Aug-02 09:33N 31°51' W 119°04'2 1.5
2016-Aug-02 08:33N 31°52' W 119°05'1 1.3
2016-Aug-02 07:33N 31°52' W 119°07'1 1.2
2016-Aug-02 06:33N 31°53' W 119°08'2 1.2
2016-Aug-02 04:33N 31°54' W 119°11'1 1.3
2016-Aug-02 03:33N 31°54' W 119°12'1 1.4
2016-Aug-02 02:33N 31°54' W 119°14'2 1.6
2016-Aug-02 01:33N 31°55' W 119°16'1 1.3
2016-Aug-02 00:33N 31°55' W 119°17'1 1.2
2016-Aug-01 23:33N 31°55' W 119°19'1 1.2
2016-Aug-01 22:33N 31°55' W 119°20'4 4.4
2016-Aug-01 21:33N 31°57' W 119°25'6 5.5
2016-Aug-01 20:33N 31°59' W 119°31'3 2.5
2016-Aug-01 19:33N 31°60' W 119°34'1 1.0
2016-Aug-01 18:33N 31°60' W 119°35'0 0.4
2016-Aug-01 17:33N 31°60' W 119°35'1 0.9
2016-Aug-01 16:33N 31°60' W 119°36'4 4.4
2016-Aug-01 15:33N 31°57' W 119°40'5 4.2
2016-Aug-01 14:18N 31°54' W 119°45'2 0.8
2016-Aug-01 12:26N 31°55' W 119°45'1 0.9
2016-Aug-01 11:27N 31°56' W 119°45'1 1.0
2016-Aug-01 10:33N 31°57' W 119°45'2 0.9
2016-Aug-01 08:33N 31°59' W 119°44'1 1.0
2016-Aug-01 07:29N 31°60' W 119°44'3 1.0
2016-Aug-01 04:33N 32°03' W 119°42'1 1.1
2016-Aug-01 03:33N 32°03' W 119°42'1 0.9
2016-Aug-01 02:33N 32°04' W 119°41'1 0.9
2016-Aug-01 01:33N 32°05' W 119°41'2 1.0
2016-Jul-31 23:32N 32°07' W 119°40'1 0.9
2016-Jul-31 22:26N 32°08' W 119°40'1 0.8
2016-Jul-31 21:33N 32°09' W 119°40'1 0.6
2016-Jul-31 20:33N 32°09' W 119°40'0 0.5
2016-Jul-31 19:33N 32°10' W 119°40'0 0.4
2016-Jul-31 18:30N 32°10' W 119°40'0 0.3
2016-Jul-31 17:33N 32°10' W 119°41'2 1.8
2016-Jul-31 16:20N 32°12' W 119°41'4 5.1
2016-Jul-31 15:33N 32°13' W 119°37'1312.6
2016-Jul-31 14:33N 32°11' W 119°22'1711.9
2016-Jul-31 13:10N 32°16' W 119°03'812.2
2016-Jul-31 12:32N 32°21' W 118°56'1212.1
2016-Jul-31 11:33N 32°28' W 118°45'1212.3
2016-Jul-31 10:33N 32°35' W 118°33'1312.8
2016-Jul-31 09:33N 32°42' W 118°21'1312.5
2016-Jul-31 08:33N 32°49' W 118°08'1212.4
2016-Jul-31 07:33N 33°02' W 118°07'1312.6
2016-Jul-31 06:32N 33°14' W 118°06'1212.1
2016-Jul-31 05:33N 33°26' W 118°09'1211.7
2016-Jul-31 04:33N 33°37' W 118°12'7 6.6
2016-Jul-31 03:33N 33°44' W 118°10'0 0.1
2016-Jul-31 02:33N 33°44' W 118°10'0 0.0
2016-Jul-31 01:24N 33°44' W 118°10'0 0.0
2016-Jul-31 00:33N 33°44' W 118°10'0 0.0
2016-Jul-30 22:33N 33°44' W 118°10'0 0.1
2016-Jul-30 21:33N 33°44' W 118°10'0 0.0
2016-Jul-30 20:33N 33°44' W 118°10'0 0.1
2016-Jul-30 19:33N 33°44' W 118°10'0 0.1
2016-Jul-30 18:33N 33°44' W 118°10'0 0.0
2016-Jul-30 17:30N 33°44' W 118°10'0 0.1
2016-Jul-30 16:33N 33°44' W 118°10'0 0.1
2016-Jul-30 15:33N 33°44' W 118°10'0 0.1
2016-Jul-30 14:30N 33°44' W 118°10'0 0.1
2016-Jul-30 13:33N 33°44' W 118°10'0 0.1
2016-Jul-30 12:30N 33°44' W 118°10'0 0.1
2016-Jul-30 11:30N 33°44' W 118°10'0 0.0
2016-Jul-30 09:30N 33°44' W 118°10'0 0.0
2016-Jul-30 08:33N 33°44' W 118°10'0 0.0
2016-Jul-30 07:33N 33°44' W 118°10'0 0.0
2016-Jul-30 06:30N 33°44' W 118°10'0 0.2
2016-Jul-30 05:27N 33°44' W 118°10'0 0.3
2016-Jul-30 04:33N 33°44' W 118°10'3 3.3
2016-Jul-30 03:34N 33°40' W 118°11'6 6.4
2016-Jul-30 02:33N 33°34' W 118°09'1312.7
2016-Jul-30 01:33N 33°22' W 118°04'1313.0
2016-Jul-30 00:33N 33°10' W 117°60'1111.1
2016-Jul-29 23:33N 32°59' W 118°01'1312.9
2016-Jul-29 22:33N 32°48' W 118°10'1313.1
2016-Jul-29 21:33N 32°40' W 118°22'1313.2
2016-Jul-29 20:34N 32°30' W 118°32'1313.1
2016-Jul-29 19:33N 32°20' W 118°43'1313.2
2016-Jul-29 18:33N 32°11' W 118°54'1313.1
2016-Jul-29 17:33N 32°01' W 119°04'1212.1
2016-Jul-29 16:33N 31°51' W 119°12'3 2.8
2016-Jul-29 15:33N 31°49' W 119°14'2 1.9
2016-Jul-29 14:33N 31°47' W 119°16'1 0.8
2016-Jul-29 13:34N 31°47' W 119°16'0 0.4
2016-Jul-29 12:33N 31°47' W 119°17'0 0.4
2016-Jul-29 11:33N 31°47' W 119°17'2 2.4
2016-Jul-29 10:33N 31°47' W 119°20'2 1.7
2016-Jul-29 09:33N 31°48' W 119°22'1 0.8
2016-Jul-29 08:34N 31°48' W 119°23'1 1.0
2016-Jul-29 07:33N 31°49' W 119°24'1 1.1
2016-Jul-29 06:33N 31°49' W 119°25'1 1.2
2016-Jul-29 05:33N 31°50' W 119°26'1 1.3
2016-Jul-29 04:33N 31°50' W 119°28'2 1.9
2016-Jul-29 03:33N 31°51' W 119°30'1 1.3
2016-Jul-29 02:33N 31°51' W 119°31'1 0.9
2016-Jul-29 01:31N 31°52' W 119°32'1 1.0
2016-Jul-29 00:33N 31°53' W 119°33'2 1.6
2016-Jul-28 23:33N 31°54' W 119°34'2 1.5
2016-Jul-28 22:33N 31°55' W 119°35'1 1.3
2016-Jul-28 21:33N 31°56' W 119°36'1 1.4
2016-Jul-28 20:33N 31°56' W 119°38'1 1.3
2016-Jul-28 19:33N 31°57' W 119°39'1 1.3
2016-Jul-28 18:32N 31°58' W 119°40'1 1.4
2016-Jul-28 17:33N 31°59' W 119°41'2 1.7
2016-Jul-28 16:33N 32°00' W 119°43'1 1.3
2016-Jul-28 15:33N 32°01' W 119°44'3 3.1
2016-Jul-28 14:33N 32°03' W 119°46'6 5.6
2016-Jul-28 13:33N 32°07' W 119°51'4 3.9
2016-Jul-28 12:33N 32°11' W 119°54'1 1.0
2016-Jul-28 11:33N 32°12' W 119°54'1 0.9
2016-Jul-28 10:32N 32°12' W 119°55'1 0.8
2016-Jul-28 09:33N 32°13' W 119°55'1 0.9
2016-Jul-28 08:32N 32°14' W 119°55'1 0.9
2016-Jul-28 07:33N 32°15' W 119°55'1 1.3
2016-Jul-28 06:33N 32°16' W 119°55'2 1.6
2016-Jul-28 05:33N 32°18' W 119°55'1 1.5
2016-Jul-28 04:33N 32°19' W 119°56'1 1.4
2016-Jul-28 03:33N 32°19' W 119°58'2 1.6
2016-Jul-28 02:33N 32°20' W 119°59'1 0.9
2016-Jul-28 01:33N 32°19' W 119°59'6 6.3
2016-Jul-28 00:33N 32°18' W 119°52'1111.4
2016-Jul-27 23:33N 32°14' W 119°40'1312.7
2016-Jul-27 22:33N 32°09' W 119°25'1312.6
2016-Jul-27 21:33N 32°05' W 119°11'1212.2
2016-Jul-27 20:34N 32°01' W 118°58'1211.8
2016-Jul-27 19:33N 31°58' W 118°45'1211.8
2016-Jul-27 18:33N 31°55' W 118°31'1211.9
2016-Jul-27 17:33N 31°54' W 118°17'1212.2
2016-Jul-27 16:33N 31°53' W 118°03'1512.3
2016-Jul-27 15:20N 31°52' W 117°45'1011.0
2016-Jul-27 14:24N 31°58' W 117°36'1011.6
2016-Jul-27 13:33N 32°07' W 117°31'1010.4
2016-Jul-27 12:33N 32°16' W 117°24'1 1.1
2016-Jul-27 11:26N 32°16' W 117°23'0 0.1
2016-Jul-27 10:07N 32°16' W 117°23'0 0.2
2016-Jul-27 09:31N 32°16' W 117°23'0 0.2
2016-Jul-27 08:16N 32°17' W 117°23'0 0.2
2016-Jul-27 07:31N 32°17' W 117°23'0 0.2
2016-Jul-27 06:33N 32°17' W 117°24'0 0.1
2016-Jul-27 05:29N 32°17' W 117°24'0 0.3
2016-Jul-27 04:33N 32°17' W 117°23'1 0.2
2016-Jul-27 01:25N 32°18' W 117°24'0 0.3
2016-Jul-27 00:33N 32°18' W 117°24'0 0.4
2016-Jul-26 23:33N 32°18' W 117°25'0 0.4
2016-Jul-26 22:33N 32°18' W 117°25'0 0.4
2016-Jul-26 21:33N 32°18' W 117°26'0 0.4
2016-Jul-26 20:33N 32°18' W 117°26'0 0.4
2016-Jul-26 19:33N 32°18' W 117°26'0 0.3
2016-Jul-26 18:33N 32°17' W 117°27'0 0.2
2016-Jul-26 17:33N 32°17' W 117°27'0 0.2
2016-Jul-26 16:33N 32°17' W 117°26'0 0.2
2016-Jul-26 15:33N 32°17' W 117°26'0 0.2
2016-Jul-26 14:33N 32°17' W 117°26'0 0.3
2016-Jul-26 13:33N 32°17' W 117°26'0 0.1
2016-Jul-26 12:33N 32°17' W 117°26'0 0.2
2016-Jul-26 11:33N 32°17' W 117°26'0 0.1
2016-Jul-26 10:33N 32°17' W 117°25'0 0.1
2016-Jul-26 09:28N 32°17' W 117°25'0 0.1
2016-Jul-26 08:33N 32°17' W 117°25'0 0.2
2016-Jul-26 07:33N 32°17' W 117°25'0 0.2
2016-Jul-26 06:28N 32°17' W 117°25'0 0.2
2016-Jul-26 05:31N 32°18' W 117°25'0 0.1
2016-Jul-26 04:24N 32°18' W 117°25'0 0.1
2016-Jul-26 03:33N 32°18' W 117°26'0 0.2
2016-Jul-26 02:28N 32°18' W 117°26'0 0.2
2016-Jul-26 01:33N 32°18' W 117°26'0 0.3
2016-Jul-26 00:13N 32°18' W 117°26'0 0.3
2016-Jul-25 23:33N 32°18' W 117°26'0 0.4
2016-Jul-25 22:28N 32°18' W 117°27'0 0.4
2016-Jul-25 21:33N 32°18' W 117°27'0 0.4
2016-Jul-25 20:32N 32°18' W 117°28'0 0.3
2016-Jul-25 19:24N 32°18' W 117°28'0 0.3
2016-Jul-25 18:27N 32°18' W 117°28'0 0.4
2016-Jul-25 17:33N 32°17' W 117°28'1 0.4
2016-Jul-25 14:25N 32°16' W 117°28'1 0.3
2016-Jul-25 11:33N 32°15' W 117°27'1 0.2
2016-Jul-25 07:21N 32°16' W 117°27'0 0.1
2016-Jul-25 04:33N 32°16' W 117°27'0 0.3
2016-Jul-25 03:33N 32°16' W 117°28'0 0.2
2016-Jul-25 02:33N 32°16' W 117°28'0 0.3
2016-Jul-25 01:32N 32°16' W 117°28'0 0.3
2016-Jul-25 00:30N 32°16' W 117°28'0 0.3
2016-Jul-24 23:23N 32°16' W 117°29'2 0.4
2016-Jul-24 19:32N 32°15' W 117°30'5 0.7
2016-Jul-24 13:09N 32°10' W 117°30'1 0.4
2016-Jul-24 11:31N 32°10' W 117°29'0 0.0
2016-Jul-24 09:17N 32°10' W 117°29'0 0.2
2016-Jul-24 07:19N 32°10' W 117°29'0 0.2
2016-Jul-24 06:33N 32°09' W 117°30'0 0.3
2016-Jul-24 05:31N 32°09' W 117°30'0 0.4
2016-Jul-24 04:33N 32°10' W 117°30'0 0.4
2016-Jul-24 03:33N 32°09' W 117°31'  

Dump ship's entire track history